Nearby METAR Reports

 

KGEU - Glendale, Arizona, USA
Distance from station: S 3mi, 4km
Updated: Mon, 22-May-2017 5:47pm MST
Partly cloudy
Partly cloudy
 Wind from S
Wind: S 14 mph , 22 km/h, Gust: 20 mph , 31 km/h
Temperature: 104°F , 40°C
Dew Point: 21°F , -6°C
Humidity: 5%
Barometer: 29.77 inHg , 1008.1 hPa
Clouds: Partly cloudy
Visibility: 10 miles , 16 km
Cloud details: Few Clouds 12000 ft
Partly cloudy 25000 ft
2017/05/23 00:47 KGEU 230047Z 18012G17KT 10SM FEW120 SCT250 40/M06 A2977
KLUF - Luke Afb/Glendal, Arizona, USA
Distance from station: SW 5mi, 8km
Updated: Mon, 22-May-2017 5:58pm MST
Clear
Clear
 Wind from SW
Wind: SW 15 mph , 24 km/h, Gust: 23 mph , 37 km/h
Temperature: 102°F , 39°C
Dew Point: 25°F , -4°C
Humidity: 6%
Barometer: 29.74 inHg , 1007.1 hPa
Clouds: Clear
Visibility: 10 miles , 16 km
2017/05/23 00:58 KLUF 230058Z AUTO 22013G20KT 10SM CLR 39/M04 A2974 RMK AO2 SLP057 T03931042 $
 
KGYR - Goodyear Municip, Arizona, USA
Distance from station: SSW 11mi, 18km
Updated: Mon, 22-May-2017 5:47pm MST
Partly cloudy
Partly cloudy
 Wind from SW
Wind: SW 15 mph , 24 km/h
Temperature: 102°F , 39°C
Dew Point: 30°F , -1°C
Humidity: 8%
Barometer: 29.75 inHg , 1007.5 hPa
Clouds: Partly cloudy
Visibility: 10 miles , 16 km
Cloud details: Few Clouds 12000 ft
Partly cloudy 25000 ft
2017/05/23 00:47 KGYR 230047Z 22013KT 10SM FEW120 SCT250 39/M01 A2975
KDVT - Phoenix/Deer Vly, Arizona, USA
Distance from station: ENE 16mi, 26km
Updated: Mon, 22-May-2017 5:53pm MST
Clear
Clear
 Wind from SW
Wind: SW 14 mph , 22 km/h
Temperature: 99°F , 37°C
Dew Point: 25°F , -4°C
Humidity: 7%
Barometer: 29.78 inHg , 1008.5 hPa
Clouds: Clear
Visibility: 10 miles , 16 km
2017/05/23 00:53 KDVT 230053Z 23012KT 10SM CLR 37/M04 A2978 RMK AO2 SLP057 T03721044
 
KPHX - Phoenix/Sky Hrbr, Arizona, USA
Distance from station: ESE 19mi, 31km
Updated: Mon, 22-May-2017 5:51pm MST
Mostly cloudy
Mostly cloudy
 Wind from W
Wind: W 12 mph , 19 km/h
Temperature: 100°F , 38°C
Dew Point: 27°F , -3°C
Humidity: 7%
Barometer: 29.75 inHg , 1007.5 hPa
Clouds: Mostly cloudy
Visibility: 10 miles , 16 km
Cloud details: Partly cloudy 11000 ft
Mostly cloudy 25000 ft
2017/05/23 00:51 KPHX 230051Z 28010KT 10SM SCT110 BKN250 38/M03 A2975 RMK AO2 SLP053 T03831033
KSDL - Scottsdale, Arizona, USA
Distance from station: E 23mi, 37km
Updated: Mon, 22-May-2017 5:53pm MST
Clear
Clear
 Wind from W
Wind: W 10 mph , 17 km/h, Gust: 16 mph , 26 km/h
Temperature: 100°F , 38°C
Dew Point: 25°F , -4°C
Humidity: 7%
Barometer: 29.79 inHg , 1008.8 hPa
Clouds: Clear
Visibility: 10 miles , 16 km
2017/05/23 00:53 KSDL 230053Z 26009G14KT 10SM CLR 38/M04 A2979 RMK AO2 SLP061 T03781044
 
KBXK - Buckeye, Arizona, USA
Distance from station: WSW 24mi, 39km
Updated: Mon, 22-May-2017 5:55pm MST
Clear
Clear
 Wind from W
Wind: W 3 mph , 6 km/h
Temperature: 100°F , 38°C
Dew Point: 32°F , 0°C
Humidity: 9%
Barometer: 29.76 inHg , 1007.8 hPa
Clouds: Clear
Visibility: 10 miles , 16 km
2017/05/23 00:55 KBXK 230055Z AUTO 27003KT 10SM CLR 38/00 A2976 RMK AO1
KFFZ - Mesa/Falcon Fld, Arizona, USA
Distance from station: E 35mi, 56km
Updated: Mon, 22-May-2017 4:47pm MST
NOT Current
Partly cloudy
Partly cloudy
 Wind from W
Wind: W 14 mph , 22 km/h
Barometer: 29.80 inHg , 1009.1 hPa
Clouds: Partly cloudy
Visibility: 50 miles , 80 km
Cloud details: Partly cloudy 8000 ft
2017/05/22 23:47 KFFZ 222347Z 27012KT 50SM SCT080 A2980
 
KIWA - Chandler/Mesa, Arizona, USA
Distance from station: ESE 42mi, 68km
Updated: Mon, 22-May-2017 5:47pm MST
Partly cloudy
Partly cloudy
 Wind from WNW
Wind: WNW 13 mph , 20 km/h
Temperature: 100°F , 38°C
Dew Point: 28°F , -2°C
Humidity: 8%
Barometer: 29.79 inHg , 1008.8 hPa
Clouds: Partly cloudy
Visibility: 45 miles , 72 km
Cloud details: Few Clouds 8000 ft
Partly cloudy 25000 ft
2017/05/23 00:47 KIWA 230047Z 29011KT 45SM FEW080 SCT250 38/M02 A2979
KCGZ - Casa Granda, Arizona, USA
Distance from station: SE 53mi, 85km
Updated: Mon, 22-May-2017 5:56pm MST
Clear
Clear
 Wind from WSW
Wind: WSW 10 mph , 17 km/h
Temperature: 99°F , 37°C
Dew Point: 27°F , -3°C
Humidity: 8%
Barometer: 29.80 inHg , 1009.1 hPa
Clouds: Clear
Visibility: 10 miles , 16 km
2017/05/23 00:56 KCGZ 230056Z AUTO 25009KT 10SM CLR 37/M03 A2980 RMK AO2 SLP076 T03721028 $
 
KGXF - Gila Bend (aaf), Arizona, USA
Distance from station: SSW 54mi, 87km
Updated: Mon, 22-May-2017 5:58pm MST
Few Clouds
Few Clouds
 Wind from calm
Wind: Calm
Temperature: 102°F , 39°C
Dew Point: 19°F , -7°C
Humidity: 5%
Barometer: 29.75 inHg , 1007.5 hPa
Clouds: Few Clouds
Visibility: 10 miles , 16 km
Cloud details: Few Clouds 8000 ft
Few Clouds 25000 ft
2017/05/23 00:58 KGXF 230058Z 00000KT 10SM FEW080 FEW250 39/M07 A2975 RMK AO2A SLP061 T03921073
KPAN - Payson, Arizona, USA
Distance from station: NE 73mi, 117km
Updated: Mon, 22-May-2017 5:55pm MST
Clear
Clear
 Wind from NNW
Wind: NNW 13 mph , 20 km/h, Gust: 20 mph , 31 km/h
Temperature: 82°F , 28°C
Dew Point: 21°F , -6°C
Humidity: 10%
Barometer: 30.10 inHg , 1019.3 hPa
Clouds: Clear
Visibility: 10 miles , 16 km
2017/05/23 00:55 KPAN 230055Z AUTO 33011G17KT 300V360 10SM CLR 28/M06 A3010 RMK AO2
 
KPRC - Prescott, Arizona, USA
Distance from station: N 75mi, 121km
Updated: Mon, 22-May-2017 5:53pm MST
Clear
Clear
 Wind from N
Wind: N 10 mph , 17 km/h
Temperature: 82°F , 28°C
Dew Point: 25°F , -4°C
Humidity: 12%
Barometer: 30.08 inHg , 1018.6 hPa
Clouds: Clear
Visibility: 10 miles , 16 km
2017/05/23 00:53 KPRC 230053Z 36009KT 10SM CLR 28/M04 A3008 RMK AO2 SLP117 T02781039
KSEZ - Sedona, Arizona, USA
Distance from station: NNE 93mi, 150km
Updated: Mon, 22-May-2017 5:55pm MST
Clear
Clear
 Wind from N
Wind: N 9 mph , 15 km/h
Temperature: 82°F , 28°C
Dew Point: 25°F , -4°C
Humidity: 12%
Barometer: 30.06 inHg , 1017.9 hPa
Clouds: Clear
Visibility: 10 miles , 16 km
2017/05/23 00:55 KSEZ 230055Z AUTO 01008KT 10SM CLR 28/M04 A3006 RMK AO2
 
KFLG - Flagstaff, Arizona, USA
Distance from station: NNE 114mi, 184km
Updated: Mon, 22-May-2017 5:57pm MST
Clear
Clear
 Wind from varies
Wind: varies 5 mph , 7 km/h
Temperature: 68°F , 20°C
Dew Point: 19°F , -7°C
Humidity: 16%
Barometer: 30.22 inHg , 1023.4 hPa
Clouds: Clear
Visibility: 10 miles , 16 km
2017/05/23 00:57 KFLG 230057Z VRB04KT 10SM CLR 20/M07 A3022 RMK AO2 SLP161 T02001072
KRYN - Tucson/Ryan Fld, Arizona, USA
Distance from station: SE 118mi, 190km
Updated: Mon, 22-May-2017 5:45pm MST
Clear
Clear
 Wind from NNW
Wind: NNW 12 mph , 19 km/h
Temperature: 97°F , 36°C
Dew Point: 21°F , -6°C
Humidity: 6%
Barometer: 29.88 inHg , 1011.9 hPa
Clouds: Clear
Visibility: 10 miles , 16 km
2017/05/23 00:45 KRYN 230045Z 34010KT 10SM CLR 36/M06 A2988
 
KTUS - Tucson, Arizona, USA
Distance from station: SE 127mi, 204km
Updated: Mon, 22-May-2017 5:53pm MST
Clear
Clear
 Wind from NNW
Wind: NNW 13 mph , 20 km/h
Temperature: 97°F , 36°C
Dew Point: 18°F , -8°C
Humidity: 5%
Barometer: 29.90 inHg , 1012.5 hPa
Clouds: Clear
Visibility: 10 miles , 16 km
2017/05/23 00:53 KTUS 230053Z 33011KT 10SM CLR 36/M08 A2990 RMK AO2 SLP076 T03561078
KDMA - Davis/Tucson, Arizona, USA
Distance from station: SE 128mi, 206km
Updated: Mon, 22-May-2017 5:58pm MST
Clear
Clear
 Wind from NNW
Wind: NNW 21 mph , 33 km/h, Gust: 28 mph , 44 km/h
Temperature: 95°F , 35°C
Dew Point: 18°F , -8°C
Humidity: 6%
Barometer: 29.89 inHg , 1012.2 hPa
Clouds: Clear
Visibility: 10 miles , 16 km
2017/05/23 00:58 KDMA 230058Z AUTO 33018G24KT 10SM CLR 35/M08 A2989 RMK AO2 SLP078 T03461077 $
 
KINW - Winslow, Arizona, USA
Distance from station: NE 136mi, 219km
Updated: Mon, 22-May-2017 5:56pm MST
Clear
Clear
 Wind from NNW
Wind: NNW 13 mph , 20 km/h, Gust: 23 mph , 37 km/h
Temperature: 81°F , 27°C
Dew Point: 27°F , -3°C
Humidity: 14%
Barometer: 30.07 inHg , 1018.3 hPa
Clouds: Clear
Visibility: 10 miles , 16 km
2017/05/23 00:56 KINW 230056Z AUTO 33011G20KT 10SM CLR 27/M03 A3007 RMK AO2 SLP126 T02671033
KHII - Lake Havasu City, Arizona, USA
Distance from station: WNW 136mi, 220km
Updated: Mon, 22-May-2017 5:55pm MST
Clear
Clear
 Wind from NNW
Wind: NNW 15 mph , 24 km/h, Gust: 22 mph , 35 km/h
Temperature: 102°F , 39°C
Dew Point: 25°F , -4°C
Humidity: 6%
Barometer: 29.79 inHg , 1008.8 hPa
Clouds: Clear
Visibility: 10 miles , 16 km
2017/05/23 00:55 KHII 230055Z AUTO 33013G19KT 10SM CLR 39/M04 A2979 RMK AO2